Terminal Aerodrome Forecast
Issued by NWS

Home | Current Version | Previous Version | Text Only | Print | Product List | Glossary On
Versions: 1 2 3 4 5 6 7 8 9 10 11 12 13 14 15 16 17 18 19 20 21 22 23 24 25 26 27 28 29 30 31 32 33 34 35 36 37 38 39 40
000
FTUS43 KGLD 170642 AAA
TAFMCK
TAF AMD
KMCK 170642Z 1707/1806 03010KT 3SM RA BR OVC005
     FM170900 09010KT 2SM RA BR OVC004
     FM171500 09011KT 2SM BR OVC002
     FM171800 12011KT P6SM SCT016 BKN028
     FM180000 08015KT 5SM -TSRA BKN030CB=

USA.gov is the U.S. government's official web portal to all federal, state and local government web resources and services.